Nelspruit, South Africa
Current Conditions -  °F | °C
As of 3:00 PM on Tuesday 21 Oct 2014 (Local Time) from FAKN Reporting Station
Broken Clouds Broken Clouds  
Wind Chill: 70°   Ceiling: 2000
Heat Index: 70°   Visibility: 6mi
Dew Point: 52°   Wind: 7mph
Humidity: 53%   Direction: 70°ENE
Pressure: 30.18"   Gusts: NA
Location:  25.47°S, 30.99°E
Report Text: FAKN 211300Z 07006KT 9999 BKN020 21/11 Q1022 NOSIG
Loading
Personal Weather Stations






























Interactive Weather Map
Tropical Storm Tracking
New forecast layout! Learn more

10-Day Weather Forecast

Advertisements
Track Severe Weather on mobile